Terminal Aerodrome Forecast
Issued by NWS

Home | Current Version | Previous Version | Text Only | Print | Product List | Glossary On
Versions: 1 2 3 4 5 6 7 8 9 10 11 12 13 14
820
FTUS45 KABQ 241743
TAFFMN
TAF
KFMN 241743Z 2418/2518 19007KT P6SM FEW070 SCT120 SCT250
     FM242200 19009KT P6SM VCSH SCT080 BKN120
      TEMPO 2423/2503 VRB15G30KT 6SM -TSRA OVC050CB
     FM250800 VRB05KT P6SM SCT080 BKN120
     FM251300 08006KT P6SM SCT120=

USA.gov is the U.S. government's official web portal to all federal, state and local government web resources and services.